Shipshewana, Indiana
Current Conditions -  °F | °C
As of 5:14 AM on Sunday 25 Jan 2015 (Local Time) from KIRS Reporting Station
Haze Haze  
Wind Chill:   Ceiling: 2000
Heat Index:   Visibility: 4mi
Dew Point:   Wind: 3mph
Humidity: 93%   Direction: 30°NNE
Pressure: 29.69"   Gusts: NA
Location:  41.67°N, 85.58°W
Report Text: KIRS 251014Z AUTO 03003KT 4SM BR BKN020 OVC100 01/00 A2969 RMK AO2
Loading
Personal Weather Stations






























Interactive Weather Map New forecast layout! Learn more

10-Day Weather Forecast

Advertisements
Track Severe Weather on mobile